sensor_id;sensor_type;location;lat;lon;timestamp;pressure;altitude;pressure_sealevel;temperature;humidity
60852;BME280;48553;50.766;2.900;2023-08-20T00:02:23;101383.38;;;22.11;63.97
60852;BME280;48553;50.766;2.900;2023-08-20T00:05:25;101387.75;;;22.09;64.13
60852;BME280;48553;50.766;2.900;2023-08-20T00:08:26;101392.56;;;22.08;63.99
60852;BME280;48553;50.766;2.900;2023-08-20T00:11:26;101386.19;;;22.08;64.05
60852;BME280;48553;50.766;2.900;2023-08-20T00:14:52;101389.38;;;22.03;64.15
60852;BME280;48553;50.766;2.900;2023-08-20T00:17:55;101388.97;;;22.01;64.32
60852;BME280;48553;50.766;2.900;2023-08-20T00:20:56;101386.59;;;21.99;64.16
60852;BME280;48553;50.766;2.900;2023-08-20T00:23:56;101392.56;;;21.94;64.38
60852;BME280;48553;50.766;2.900;2023-08-20T00:26:57;101396.97;;;21.92;64.12
60852;BME280;48553;50.766;2.900;2023-08-20T00:29:57;101390.16;;;21.89;64.26
60852;BME280;48553;50.766;2.900;2023-08-20T00:32:58;101393.78;;;21.89;64.57
60852;BME280;48553;50.766;2.900;2023-08-20T00:35:58;101395.72;;;21.89;64.18
60852;BME280;48553;50.766;2.900;2023-08-20T00:38:59;101398.94;;;21.84;64.24
60852;BME280;48553;50.766;2.900;2023-08-20T00:41:59;101405.31;;;21.84;64.40
60852;BME280;48553;50.766;2.900;2023-08-20T00:44:59;101400.13;;;21.79;64.45
60852;BME280;48553;50.766;2.900;2023-08-20T00:48:00;101398.13;;;21.80;64.44
60852;BME280;48553;50.766;2.900;2023-08-20T00:51:00;101396.13;;;21.77;64.58
60852;BME280;48553;50.766;2.900;2023-08-20T00:54:02;101395.72;;;21.75;64.40
60852;BME280;48553;50.766;2.900;2023-08-20T00:57:03;101396.13;;;21.73;64.53
60852;BME280;48553;50.766;2.900;2023-08-20T01:00:04;101401.72;;;21.69;64.44
60852;BME280;48553;50.766;2.900;2023-08-20T01:03:07;101398.91;;;21.66;64.82
60852;BME280;48553;50.766;2.900;2023-08-20T01:09:50;101388.94;;;21.61;64.58
60852;BME280;48553;50.766;2.900;2023-08-20T01:12:54;101395.72;;;21.57;64.77
60852;BME280;48553;50.766;2.900;2023-08-20T01:15:56;101393.34;;;21.55;65.05
60852;BME280;48553;50.766;2.900;2023-08-20T01:18:56;101401.28;;;21.53;64.69
60852;BME280;48553;50.766;2.900;2023-08-20T01:28:44;101401.66;;;21.41;65.22
60852;BME280;48553;50.766;2.900;2023-08-20T01:31:45;101406.06;;;21.42;65.09
60852;BME280;48553;50.766;2.900;2023-08-20T01:34:47;101412.38;;;21.39;64.94
60852;BME280;48553;50.766;2.900;2023-08-20T01:37:48;101406.38;;;21.37;65.00
60852;BME280;48553;50.766;2.900;2023-08-20T01:40:49;101421.91;;;21.34;64.81
60852;BME280;48553;50.766;2.900;2023-08-20T01:43:49;101416.34;;;21.31;65.32
60852;BME280;48553;50.766;2.900;2023-08-20T01:46:49;101414.72;;;21.30;65.31
60852;BME280;48553;50.766;2.900;2023-08-20T01:49:50;101415.16;;;21.28;65.26
60852;BME280;48553;50.766;2.900;2023-08-20T01:52:50;101418.72;;;21.28;64.97
60852;BME280;48553;50.766;2.900;2023-08-20T01:55:50;101429.06;;;21.24;65.08
60852;BME280;48553;50.766;2.900;2023-08-20T01:58:51;101429.06;;;21.24;65.15
60852;BME280;48553;50.766;2.900;2023-08-20T02:01:51;101424.66;;;21.20;64.99
60852;BME280;48553;50.766;2.900;2023-08-20T02:04:52;101425.84;;;21.15;64.94
60852;BME280;48553;50.766;2.900;2023-08-20T02:07:53;101431.41;;;21.15;65.46
60852;BME280;48553;50.766;2.900;2023-08-20T02:11:01;101435.38;;;21.11;65.29
60852;BME280;48553;50.766;2.900;2023-08-20T02:14:02;101434.19;;;21.08;65.54
60852;BME280;48553;50.766;2.900;2023-08-20T02:17:03;101444.13;;;21.05;65.20
60852;BME280;48553;50.766;2.900;2023-08-20T02:20:04;101435.72;;;21.02;65.51
60852;BME280;48553;50.766;2.900;2023-08-20T02:23:05;101440.91;;;21.00;65.72
60852;BME280;48553;50.766;2.900;2023-08-20T02:26:05;101444.47;;;20.97;65.68
60852;BME280;48553;50.766;2.900;2023-08-20T02:29:06;101444.84;;;20.95;65.51
60852;BME280;48553;50.766;2.900;2023-08-20T02:32:06;101435.69;;;20.95;65.60
60852;BME280;48553;50.766;2.900;2023-08-20T02:35:07;101440.06;;;20.92;65.60
60852;BME280;48553;50.766;2.900;2023-08-20T02:38:08;101434.88;;;20.91;65.70
60852;BME280;48553;50.766;2.900;2023-08-20T02:41:09;101442.44;;;20.90;65.66
60852;BME280;48553;50.766;2.900;2023-08-20T02:44:10;101432.84;;;20.84;65.84
60852;BME280;48553;50.766;2.900;2023-08-20T02:47:10;101436.03;;;20.82;66.05
60852;BME280;48553;50.766;2.900;2023-08-20T02:50:11;101436.03;;;20.82;65.87
60852;BME280;48553;50.766;2.900;2023-08-20T02:53:11;101436.03;;;20.82;66.02
60852;BME280;48553;50.766;2.900;2023-08-20T02:56:11;101433.63;;;20.81;66.05
60852;BME280;48553;50.766;2.900;2023-08-20T02:59:12;101450.31;;;20.77;65.93
60852;BME280;48553;50.766;2.900;2023-08-20T03:02:12;101443.16;;;20.76;66.18
60852;BME280;48553;50.766;2.900;2023-08-20T03:05:13;101445.16;;;20.76;66.45
60852;BME280;48553;50.766;2.900;2023-08-20T03:08:14;101447.94;;;20.76;66.21
60852;BME280;48553;50.766;2.900;2023-08-20T03:11:14;101460.63;;;20.70;66.12
60852;BME280;48553;50.766;2.900;2023-08-20T03:14:15;101445.50;;;20.67;66.42
60852;BME280;48553;50.766;2.900;2023-08-20T03:17:15;101453.06;;;20.67;66.39
60852;BME280;48553;50.766;2.900;2023-08-20T03:20:15;101449.47;;;20.66;66.66
60852;BME280;48553;50.766;2.900;2023-08-20T03:23:16;101457.81;;;20.62;66.61
60852;BME280;48553;50.766;2.900;2023-08-20T03:26:16;101461.75;;;20.61;66.72
60852;BME280;48553;50.766;2.900;2023-08-20T03:29:17;101451.81;;;20.60;66.69
60852;BME280;48553;50.766;2.900;2023-08-20T03:32:17;101448.63;;;20.58;66.95
60852;BME280;48553;50.766;2.900;2023-08-20T03:35:18;101455.38;;;20.57;66.95
60852;BME280;48553;50.766;2.900;2023-08-20T03:38:18;101458.53;;;20.56;67.06
60852;BME280;48553;50.766;2.900;2023-08-20T03:41:19;101458.53;;;20.56;66.83
60852;BME280;48553;50.766;2.900;2023-08-20T03:44:19;101451.75;;;20.53;67.01
60852;BME280;48553;50.766;2.900;2023-08-20T03:47:20;101460.47;;;20.52;67.09
60852;BME280;48553;50.766;2.900;2023-08-20T03:50:20;101459.66;;;20.48;66.90
60852;BME280;48553;50.766;2.900;2023-08-20T03:53:21;101456.84;;;20.44;67.10
60852;BME280;48553;50.766;2.900;2023-08-20T03:56:21;101463.97;;;20.41;67.03
60852;BME280;48553;50.766;2.900;2023-08-20T03:59:21;101458.00;;;20.39;66.98
60852;BME280;48553;50.766;2.900;2023-08-20T04:02:23;101470.31;;;20.38;66.96
60852;BME280;48553;50.766;2.900;2023-08-20T04:05:23;101475.47;;;20.36;67.19
60852;BME280;48553;50.766;2.900;2023-08-20T04:08:24;101481.03;;;20.36;67.25
60852;BME280;48553;50.766;2.900;2023-08-20T04:11:24;101477.84;;;20.34;67.00
60852;BME280;48553;50.766;2.900;2023-08-20T04:14:25;101493.75;;;20.34;67.12
60852;BME280;48553;50.766;2.900;2023-08-20T04:17:25;101490.91;;;20.30;66.90
60852;BME280;48553;50.766;2.900;2023-08-20T04:20:25;101487.75;;;20.28;67.34
60852;BME280;48553;50.766;2.900;2023-08-20T04:23:26;101484.56;;;20.26;67.18
60852;BME280;48553;50.766;2.900;2023-08-20T04:26:26;101496.06;;;20.24;67.36
60852;BME280;48553;50.766;2.900;2023-08-20T04:29:27;101494.84;;;20.22;67.41
60852;BME280;48553;50.766;2.900;2023-08-20T04:32:28;101487.66;;;20.21;67.39
60852;BME280;48553;50.766;2.900;2023-08-20T04:35:29;101488.03;;;20.16;67.42
60852;BME280;48553;50.766;2.900;2023-08-20T04:38:29;101476.09;;;20.15;67.65
60852;BME280;48553;50.766;2.900;2023-08-20T04:41:29;101483.66;;;20.15;67.67
60852;BME280;48553;50.766;2.900;2023-08-20T04:44:30;101490.38;;;20.14;67.77
60852;BME280;48553;50.766;2.900;2023-08-20T04:47:30;101493.16;;;20.10;67.71
60852;BME280;48553;50.766;2.900;2023-08-20T04:50:31;101500.31;;;20.11;67.77
60852;BME280;48553;50.766;2.900;2023-08-20T04:53:31;101493.53;;;20.09;67.79
60852;BME280;48553;50.766;2.900;2023-08-20T04:56:31;101491.94;;;20.08;67.89
60852;BME280;48553;50.766;2.900;2023-08-20T04:59:32;101494.31;;;20.06;67.97
60852;BME280;48553;50.766;2.900;2023-08-20T05:02:32;101502.66;;;20.06;67.87
60852;BME280;48553;50.766;2.900;2023-08-20T05:05:33;101503.03;;;20.04;67.99
60852;BME280;48553;50.766;2.900;2023-08-20T05:08:33;101509.81;;;20.07;67.87
60852;BME280;48553;50.766;2.900;2023-08-20T05:11:33;101499.44;;;20.03;68.00
60852;BME280;48553;50.766;2.900;2023-08-20T05:14:34;101510.94;;;20.02;68.04
60852;BME280;48553;50.766;2.900;2023-08-20T05:17:34;101510.53;;;20.00;68.02
60852;BME280;48553;50.766;2.900;2023-08-20T05:20:34;101525.22;;;20.00;68.13
60852;BME280;48553;50.766;2.900;2023-08-20T05:23:35;101513.72;;;19.98;68.30
60852;BME280;48553;50.766;2.900;2023-08-20T05:26:35;101508.94;;;19.99;68.47
60852;BME280;48553;50.766;2.900;2023-08-20T05:29:36;101508.53;;;20.00;68.50
60852;BME280;48553;50.766;2.900;2023-08-20T05:32:38;101509.38;;;20.01;68.66
60852;BME280;48553;50.766;2.900;2023-08-20T05:35:38;101503.81;;;20.05;68.68
60852;BME280;48553;50.766;2.900;2023-08-20T05:38:39;101514.94;;;20.05;68.98
60852;BME280;48553;50.766;2.900;2023-08-20T05:41:39;101506.22;;;20.06;69.22
60852;BME280;48553;50.766;2.900;2023-08-20T05:44:39;101505.44;;;20.06;69.03
60852;BME280;48553;50.766;2.900;2023-08-20T05:47:47;101519.78;;;20.08;69.20
60852;BME280;48553;50.766;2.900;2023-08-20T05:50:47;101507.81;;;20.07;69.05
60852;BME280;48553;50.766;2.900;2023-08-20T05:53:48;101513.78;;;20.06;69.03
60852;BME280;48553;50.766;2.900;2023-08-20T05:56:48;101512.59;;;20.07;69.10
60852;BME280;48553;50.766;2.900;2023-08-20T05:59:49;101518.56;;;20.09;69.28
60852;BME280;48553;50.766;2.900;2023-08-20T06:02:49;101506.66;;;20.08;69.01
60852;BME280;48553;50.766;2.900;2023-08-20T06:05:50;101514.59;;;20.10;69.29
60852;BME280;48553;50.766;2.900;2023-08-20T06:08:50;101516.22;;;20.11;69.48
60852;BME280;48553;50.766;2.900;2023-08-20T06:11:51;101516.63;;;20.13;69.19
60852;BME280;48553;50.766;2.900;2023-08-20T06:14:51;101515.47;;;20.17;69.27
60852;BME280;48553;50.766;2.900;2023-08-20T06:17:52;101519.91;;;20.22;69.33
60852;BME280;48553;50.766;2.900;2023-08-20T06:20:52;101529.88;;;20.27;69.13
60852;BME280;48553;50.766;2.900;2023-08-20T06:23:52;101529.09;;;20.30;69.02
60852;BME280;48553;50.766;2.900;2023-08-20T06:26:53;101525.94;;;20.31;69.40
60852;BME280;48553;50.766;2.900;2023-08-20T06:29:53;101531.56;;;20.35;69.51
60852;BME280;48553;50.766;2.900;2023-08-20T06:32:54;101539.56;;;20.40;69.08
60852;BME280;48553;50.766;2.900;2023-08-20T06:35:54;101532.41;;;20.42;69.06
60852;BME280;48553;50.766;2.900;2023-08-20T06:38:54;101544.38;;;20.47;69.61
60852;BME280;48553;50.766;2.900;2023-08-20T06:41:55;101538.41;;;20.48;69.11
60852;BME280;48553;50.766;2.900;2023-08-20T06:44:55;101537.25;;;20.53;69.20
60852;BME280;48553;50.766;2.900;2023-08-20T06:47:55;101551.59;;;20.55;68.97
60852;BME280;48553;50.766;2.900;2023-08-20T06:50:57;101544.13;;;20.59;68.57
60852;BME280;48553;50.766;2.900;2023-08-20T06:53:58;101538.19;;;20.64;68.54
60852;BME280;48553;50.766;2.900;2023-08-20T06:56:58;101536.66;;;20.70;68.35
60852;BME280;48553;50.766;2.900;2023-08-20T06:59:58;101542.63;;;20.72;68.49
60852;BME280;48553;50.766;2.900;2023-08-20T07:02:59;101547.41;;;20.72;68.75
60852;BME280;48553;50.766;2.900;2023-08-20T07:05:59;101550.63;;;20.74;68.91
60852;BME280;48553;50.766;2.900;2023-08-20T07:09:00;101552.25;;;20.82;68.29
60852;BME280;48553;50.766;2.900;2023-08-20T07:12:00;101545.94;;;20.89;69.17
60852;BME280;48553;50.766;2.900;2023-08-20T07:15:00;101553.16;;;20.97;69.67
60852;BME280;48553;50.766;2.900;2023-08-20T07:18:01;101555.63;;;21.09;69.63
60852;BME280;48553;50.766;2.900;2023-08-20T07:21:02;101565.28;;;21.22;69.48
60852;BME280;48553;50.766;2.900;2023-08-20T07:24:02;101556.97;;;21.33;68.99
60852;BME280;48553;50.766;2.900;2023-08-20T07:27:03;101556.25;;;21.43;69.12
60852;BME280;48553;50.766;2.900;2023-08-20T07:30:11;101556.72;;;21.56;69.11
60852;BME280;48553;50.766;2.900;2023-08-20T07:33:11;101557.56;;;21.67;68.73
60852;BME280;48553;50.766;2.900;2023-08-20T07:36:11;101559.19;;;21.79;68.90
60852;BME280;48553;50.766;2.900;2023-08-20T07:39:12;101556.06;;;22.02;67.75
60852;BME280;48553;50.766;2.900;2023-08-20T07:42:12;101558.50;;;22.07;67.54
60852;BME280;48553;50.766;2.900;2023-08-20T07:45:13;101551.75;;;22.23;66.96
60852;BME280;48553;50.766;2.900;2023-08-20T07:48:13;101547.78;;;22.42;66.72
60852;BME280;48553;50.766;2.900;2023-08-20T07:51:14;101561.34;;;22.50;66.42
60852;BME280;48553;50.766;2.900;2023-08-20T07:54:14;101553.38;;;22.52;66.22
60852;BME280;48553;50.766;2.900;2023-08-20T07:57:15;101561.34;;;22.68;66.08
60852;BME280;48553;50.766;2.900;2023-08-20T08:00:15;101560.94;;;22.84;65.77
60852;BME280;48553;50.766;2.900;2023-08-20T08:03:16;101565.75;;;23.02;65.04
60852;BME280;48553;50.766;2.900;2023-08-20T08:06:17;101567.31;;;23.13;64.83
60852;BME280;48553;50.766;2.900;2023-08-20T08:12:21;101566.09;;;23.29;64.58
60852;BME280;48553;50.766;2.900;2023-08-20T08:15:21;101570.84;;;23.43;64.36
60852;BME280;48553;50.766;2.900;2023-08-20T08:18:21;101572.00;;;23.52;64.24
60852;BME280;48553;50.766;2.900;2023-08-20T08:21:22;101566.41;;;23.60;63.78
60852;BME280;48553;50.766;2.900;2023-08-20T08:24:22;101574.34;;;23.79;63.26
60852;BME280;48553;50.766;2.900;2023-08-20T08:27:23;101570.69;;;23.89;63.00
60852;BME280;48553;50.766;2.900;2023-08-20T08:30:23;101579.81;;;24.08;62.67
60852;BME280;48553;50.766;2.900;2023-08-20T08:33:24;101580.19;;;24.10;62.67
60852;BME280;48553;50.766;2.900;2023-08-20T08:36:24;101579.72;;;24.18;62.43
60852;BME280;48553;50.766;2.900;2023-08-20T08:39:25;101585.69;;;24.28;62.40
60852;BME280;48553;50.766;2.900;2023-08-20T08:42:25;101587.59;;;24.38;62.25
60852;BME280;48553;50.766;2.900;2023-08-20T08:45:26;101588.34;;;24.49;62.20
60852;BME280;48553;50.766;2.900;2023-08-20T08:48:27;101595.00;;;24.70;61.43
60852;BME280;48553;50.766;2.900;2023-08-20T08:51:28;101592.88;;;24.85;61.32
60852;BME280;48553;50.766;2.900;2023-08-20T08:54:29;101591.47;;;25.07;60.66
60852;BME280;48553;50.766;2.900;2023-08-20T08:57:30;101607.34;;;25.25;60.43
60852;BME280;48553;50.766;2.900;2023-08-20T09:00:31;101601.66;;;25.32;60.40
60852;BME280;48553;50.766;2.900;2023-08-20T09:03:32;101600.47;;;25.33;60.30
60852;BME280;48553;50.766;2.900;2023-08-20T09:06:55;101605.97;;;25.44;59.70
60852;BME280;48553;50.766;2.900;2023-08-20T09:09:58;101603.78;;;25.58;59.52
60852;BME280;48553;50.766;2.900;2023-08-20T09:13:01;101602.88;;;25.69;59.54
60852;BME280;48553;50.766;2.900;2023-08-20T09:16:07;101601.81;;;25.90;58.65
60852;BME280;48553;50.766;2.900;2023-08-20T09:19:08;101583.44;;;26.12;57.83
60852;BME280;48553;50.766;2.900;2023-08-20T09:22:10;101595.44;;;26.16;57.50
60852;BME280;48553;50.766;2.900;2023-08-20T09:25:15;101586.16;;;26.19;57.63
60852;BME280;48553;50.766;2.900;2023-08-20T09:28:17;101589.44;;;26.14;57.48
60852;BME280;48553;50.766;2.900;2023-08-20T09:31:18;101582.81;;;26.28;57.38
60852;BME280;48553;50.766;2.900;2023-08-20T09:34:18;101595.22;;;26.31;57.77
60852;BME280;48553;50.766;2.900;2023-08-20T09:37:20;101582.53;;;26.46;56.96
60852;BME280;48553;50.766;2.900;2023-08-20T09:40:21;101584.78;;;26.58;57.16
60852;BME280;48553;50.766;2.900;2023-08-20T09:43:25;101575.25;;;26.76;56.14
60852;BME280;48553;50.766;2.900;2023-08-20T09:46:31;101581.41;;;26.91;55.84
60852;BME280;48553;50.766;2.900;2023-08-20T09:49:39;101578.13;;;26.96;55.86
60852;BME280;48553;50.766;2.900;2023-08-20T09:52:44;101583.84;;;26.88;56.01
60852;BME280;48553;50.766;2.900;2023-08-20T09:55:50;101581.78;;;26.93;55.81
60852;BME280;48553;50.766;2.900;2023-08-20T09:58:52;101578.16;;;26.92;56.06
60852;BME280;48553;50.766;2.900;2023-08-20T10:01:55;101556.44;;;26.93;55.32
60852;BME280;48553;50.766;2.900;2023-08-20T10:04:57;101560.88;;;27.14;55.28
60852;BME280;48553;50.766;2.900;2023-08-20T10:08:01;101553.53;;;27.20;55.67
60852;BME280;48553;50.766;2.900;2023-08-20T10:11:02;101555.88;;;27.25;54.89
60852;BME280;48553;50.766;2.900;2023-08-20T10:14:03;101544.72;;;27.41;54.49
60852;BME280;48553;50.766;2.900;2023-08-20T10:17:11;101559.34;;;27.53;54.75
60852;BME280;48553;50.766;2.900;2023-08-20T10:20:14;101557.53;;;27.62;54.77
60852;BME280;48553;50.766;2.900;2023-08-20T10:23:20;101554.19;;;27.67;54.23
60852;BME280;48553;50.766;2.900;2023-08-20T10:26:20;101550.81;;;27.76;54.64
60852;BME280;48553;50.766;2.900;2023-08-20T10:35:50;101550.47;;;28.27;53.40
60852;BME280;48553;50.766;2.900;2023-08-20T10:38:50;101554.19;;;28.40;52.49
60852;BME280;48553;50.766;2.900;2023-08-20T10:45:19;101558.63;;;28.58;53.08
60852;BME280;48553;50.766;2.900;2023-08-20T10:48:20;101549.44;;;28.70;51.49
60852;BME280;48553;50.766;2.900;2023-08-20T10:54:27;101562.25;;;29.04;51.72
60852;BME280;48553;50.766;2.900;2023-08-20T10:57:33;101565.38;;;29.09;51.61
60852;BME280;48553;50.766;2.900;2023-08-20T11:00:33;101552.03;;;29.10;51.76
60852;BME280;48553;50.766;2.900;2023-08-20T11:03:34;101547.31;;;29.20;50.99
60852;BME280;48553;50.766;2.900;2023-08-20T11:06:34;101549.22;;;29.10;50.71
60852;BME280;48553;50.766;2.900;2023-08-20T11:09:35;101549.25;;;29.23;49.90
60852;BME280;48553;50.766;2.900;2023-08-20T11:12:35;101533.41;;;29.54;50.25
60852;BME280;48553;50.766;2.900;2023-08-20T11:15:38;101537.19;;;29.77;50.54
60852;BME280;48553;50.766;2.900;2023-08-20T11:18:39;101536.06;;;29.74;50.38
60852;BME280;48553;50.766;2.900;2023-08-20T11:21:41;101533.91;;;29.79;50.36
60852;BME280;48553;50.766;2.900;2023-08-20T11:24:42;101537.31;;;29.86;50.24
60852;BME280;48553;50.766;2.900;2023-08-20T11:27:43;101534.72;;;29.92;50.05
60852;BME280;48553;50.766;2.900;2023-08-20T11:30:45;101538.78;;;29.91;49.85
60852;BME280;48553;50.766;2.900;2023-08-20T11:33:46;101537.31;;;29.86;49.47
60852;BME280;48553;50.766;2.900;2023-08-20T11:36:47;101527.94;;;29.76;49.51
60852;BME280;48553;50.766;2.900;2023-08-20T11:39:48;101529.31;;;29.85;49.59
60852;BME280;48553;50.766;2.900;2023-08-20T11:42:49;101520.03;;;29.84;49.98
60852;BME280;48553;50.766;2.900;2023-08-20T11:45:50;101508.94;;;29.90;48.99
60852;BME280;48553;50.766;2.900;2023-08-20T11:49:07;101522.06;;;29.71;49.75
60852;BME280;48553;50.766;2.900;2023-08-20T11:52:08;101519.41;;;29.64;49.21
60852;BME280;48553;50.766;2.900;2023-08-20T11:55:09;101518.34;;;29.45;50.17
60852;BME280;48553;50.766;2.900;2023-08-20T11:58:13;101507.69;;;29.23;50.36
60852;BME280;48553;50.766;2.900;2023-08-20T12:01:13;101514.16;;;29.07;50.24
60852;BME280;48553;50.766;2.900;2023-08-20T12:04:14;101525.31;;;28.98;50.26
60852;BME280;48553;50.766;2.900;2023-08-20T12:07:14;101521.44;;;28.92;50.21
60852;BME280;48553;50.766;2.900;2023-08-20T12:10:21;101524.00;;;28.86;50.61
60852;BME280;48553;50.766;2.900;2023-08-20T12:13:22;101532.94;;;28.85;50.71
60852;BME280;48553;50.766;2.900;2023-08-20T12:16:23;101531.69;;;28.86;50.74
60852;BME280;48553;50.766;2.900;2023-08-20T12:19:27;101532.94;;;28.85;51.02
60852;BME280;48553;50.766;2.900;2023-08-20T12:22:27;101527.13;;;28.76;51.03
60852;BME280;48553;50.766;2.900;2023-08-20T12:25:30;101527.03;;;28.63;50.65
60852;BME280;48553;50.766;2.900;2023-08-20T12:28:31;101528.34;;;28.74;50.98
60852;BME280;48553;50.766;2.900;2023-08-20T12:31:32;101530.13;;;28.68;50.85
60852;BME280;48553;50.766;2.900;2023-08-20T12:34:32;101529.94;;;28.76;50.50
60852;BME280;48553;50.766;2.900;2023-08-20T12:37:33;101529.75;;;28.83;50.99
60852;BME280;48553;50.766;2.900;2023-08-20T12:40:34;101521.69;;;28.98;50.59
60852;BME280;48553;50.766;2.900;2023-08-20T12:43:34;101527.00;;;29.25;50.12
60852;BME280;48553;50.766;2.900;2023-08-20T12:46:35;101524.13;;;29.41;50.05
60852;BME280;48553;50.766;2.900;2023-08-20T12:49:35;101518.59;;;29.63;50.34
60852;BME280;48553;50.766;2.900;2023-08-20T12:52:35;101522.09;;;29.54;50.69
60852;BME280;48553;50.766;2.900;2023-08-20T12:55:36;101519.41;;;29.51;50.29
60852;BME280;48553;50.766;2.900;2023-08-20T12:58:36;101524.69;;;29.49;49.98
60852;BME280;48553;50.766;2.900;2023-08-20T13:01:37;101520.88;;;29.55;49.63
60852;BME280;48553;50.766;2.900;2023-08-20T13:04:38;101518.00;;;29.43;49.42
60852;BME280;48553;50.766;2.900;2023-08-20T13:07:39;101516.88;;;29.40;49.03
60852;BME280;48553;50.766;2.900;2023-08-20T13:10:49;101517.66;;;29.28;50.05
60852;BME280;48553;50.766;2.900;2023-08-20T13:13:51;101520.88;;;29.13;49.97
60852;BME280;48553;50.766;2.900;2023-08-20T13:16:52;101529.09;;;29.08;49.86
60852;BME280;48553;50.766;2.900;2023-08-20T13:19:52;101519.81;;;29.07;50.35
60852;BME280;48553;50.766;2.900;2023-08-20T13:22:53;101527.97;;;28.89;50.65
60852;BME280;48553;50.766;2.900;2023-08-20T13:25:53;101520.03;;;28.84;50.85
60852;BME280;48553;50.766;2.900;2023-08-20T13:28:54;101510.19;;;28.76;51.17
60852;BME280;48553;50.766;2.900;2023-08-20T13:31:54;101514.25;;;28.74;50.43
60852;BME280;48553;50.766;2.900;2023-08-20T13:34:55;101512.31;;;28.71;50.84
60852;BME280;48553;50.766;2.900;2023-08-20T13:37:55;101512.59;;;28.61;51.36
60852;BME280;48553;50.766;2.900;2023-08-20T13:40:55;101515.59;;;28.53;51.68
60852;BME280;48553;50.766;2.900;2023-08-20T13:43:57;101514.34;;;28.55;51.24
60852;BME280;48553;50.766;2.900;2023-08-20T13:46:58;101519.31;;;28.50;51.84
60852;BME280;48553;50.766;2.900;2023-08-20T13:49:59;101511.78;;;28.44;52.22
60852;BME280;48553;50.766;2.900;2023-08-20T13:52:59;101511.00;;;28.43;51.75
60852;BME280;48553;50.766;2.900;2023-08-20T13:55:59;101507.69;;;28.48;51.84
60852;BME280;48553;50.766;2.900;2023-08-20T13:59:00;101506.06;;;28.47;51.77
60852;BME280;48553;50.766;2.900;2023-08-20T14:02:00;101509.50;;;28.39;51.97
60852;BME280;48553;50.766;2.900;2023-08-20T14:05:01;101508.44;;;28.32;51.57
60852;BME280;48553;50.766;2.900;2023-08-20T14:08:04;101510.72;;;28.38;51.96
60852;BME280;48553;50.766;2.900;2023-08-20T14:11:05;101516.28;;;28.41;51.10
60852;BME280;48553;50.766;2.900;2023-08-20T14:14:05;101512.94;;;28.46;51.27
60852;BME280;48553;50.766;2.900;2023-08-20T14:17:06;101503.34;;;28.44;50.76
60852;BME280;48553;50.766;2.900;2023-08-20T14:20:07;101500.88;;;28.46;51.22
60852;BME280;48553;50.766;2.900;2023-08-20T14:23:08;101498.84;;;28.63;50.82
60852;BME280;48553;50.766;2.900;2023-08-20T14:26:09;101492.06;;;28.60;51.77
60852;BME280;48553;50.766;2.900;2023-08-20T14:29:09;101490.38;;;28.63;52.09
60852;BME280;48553;50.766;2.900;2023-08-20T14:32:09;101492.28;;;28.66;51.92
60852;BME280;48553;50.766;2.900;2023-08-20T14:35:10;101494.06;;;28.76;51.10
60852;BME280;48553;50.766;2.900;2023-08-20T14:38:11;101486.13;;;28.71;51.47
60852;BME280;48553;50.766;2.900;2023-08-20T14:41:12;101495.28;;;28.75;51.37
60852;BME280;48553;50.766;2.900;2023-08-20T14:44:12;101490.88;;;28.74;51.48
60852;BME280;48553;50.766;2.900;2023-08-20T14:47:13;101482.56;;;28.83;51.44
60852;BME280;48553;50.766;2.900;2023-08-20T14:50:13;101484.59;;;28.83;51.41
60852;BME280;48553;50.766;2.900;2023-08-20T14:53:14;101488.13;;;28.87;51.58
60852;BME280;48553;50.766;2.900;2023-08-20T14:56:14;101481.00;;;28.82;51.68
60852;BME280;48553;50.766;2.900;2023-08-20T14:59:15;101485.50;;;28.80;52.11
60852;BME280;48553;50.766;2.900;2023-08-20T15:02:15;101481.72;;;28.70;51.85
60852;BME280;48553;50.766;2.900;2023-08-20T15:05:16;101474.31;;;28.76;51.59
60852;BME280;48553;50.766;2.900;2023-08-20T15:08:16;101477.19;;;28.89;51.57
60852;BME280;48553;50.766;2.900;2023-08-20T15:11:17;101468.22;;;28.78;51.90
60852;BME280;48553;50.766;2.900;2023-08-20T15:14:17;101468.56;;;28.80;52.16
60852;BME280;48553;50.766;2.900;2023-08-20T15:17:17;101471.91;;;28.74;52.02
60852;BME280;48553;50.766;2.900;2023-08-20T15:20:18;101471.69;;;28.69;52.33
60852;BME280;48553;50.766;2.900;2023-08-20T15:23:18;101471.72;;;28.82;52.28
60852;BME280;48553;50.766;2.900;2023-08-20T15:26:19;101465.91;;;28.89;51.47
60852;BME280;48553;50.766;2.900;2023-08-20T15:29:19;101467.91;;;28.88;51.28
60852;BME280;48553;50.766;2.900;2023-08-20T15:32:19;101465.97;;;28.85;51.60
60852;BME280;48553;50.766;2.900;2023-08-20T15:35:21;101465.50;;;28.74;52.09
60852;BME280;48553;50.766;2.900;2023-08-20T15:38:21;101462.22;;;28.76;51.85
60852;BME280;48553;50.766;2.900;2023-08-20T15:41:22;101468.22;;;28.78;51.78
60852;BME280;48553;50.766;2.900;2023-08-20T15:44:22;101474.75;;;28.74;52.22
60852;BME280;48553;50.766;2.900;2023-08-20T15:47:22;101470.00;;;28.71;52.21
60852;BME280;48553;50.766;2.900;2023-08-20T15:50:23;101467.59;;;28.70;52.57
60852;BME280;48553;50.766;2.900;2023-08-20T15:53:23;101474.00;;;28.58;52.40
60852;BME280;48553;50.766;2.900;2023-08-20T15:56:25;101482.34;;;28.45;52.70
60852;BME280;48553;50.766;2.900;2023-08-20T15:59:25;101476.97;;;28.34;52.72
60852;BME280;48553;50.766;2.900;2023-08-20T16:02:26;101477.31;;;28.36;52.68
60852;BME280;48553;50.766;2.900;2023-08-20T16:05:26;101477.88;;;28.31;52.57
60852;BME280;48553;50.766;2.900;2023-08-20T16:08:27;101472.50;;;28.20;52.70
60852;BME280;48553;50.766;2.900;2023-08-20T16:11:27;101466.78;;;28.24;52.82
60852;BME280;48553;50.766;2.900;2023-08-20T16:14:27;101463.53;;;28.25;52.71